createdAt,value
2022-12-24T00:02:29.649Z,-1.59
2022-12-24T00:05:01.392Z,-1.63
2022-12-24T00:07:33.198Z,-1.67
2022-12-24T00:10:03.065Z,-1.67
2022-12-24T00:12:32.878Z,-1.66
2022-12-24T00:15:02.720Z,-1.63
2022-12-24T00:17:32.682Z,-1.69
2022-12-24T00:20:06.149Z,-1.77
2022-12-24T00:22:37.596Z,-1.77
2022-12-24T00:25:08.807Z,-1.76
2022-12-24T00:27:38.826Z,-1.79
2022-12-24T00:30:10.901Z,-1.76
2022-12-24T00:32:40.978Z,-1.66
2022-12-24T00:35:11.706Z,-1.69
2022-12-24T00:37:43.127Z,-1.73
2022-12-24T00:40:13.833Z,-1.67
2022-12-24T00:42:43.836Z,-1.63
2022-12-24T00:45:15.400Z,-1.63
2022-12-24T00:50:52.165Z,-1.81
2022-12-24T00:53:22.270Z,-1.90
2022-12-24T00:55:52.139Z,-1.96
2022-12-24T00:58:22.033Z,-1.97
2022-12-24T01:00:51.979Z,-1.97
2022-12-24T01:03:21.922Z,-2.00
2022-12-24T01:05:53.599Z,-1.99
2022-12-24T01:08:23.522Z,-1.97
2022-12-24T01:10:53.400Z,-1.94
2022-12-24T01:13:23.940Z,-1.90
2022-12-24T01:15:54.573Z,-1.95
2022-12-24T01:18:25.038Z,-1.96
2022-12-24T01:21:02.661Z,-1.94
2022-12-24T01:23:34.060Z,-1.92
2022-12-24T01:26:04.558Z,-1.92
2022-12-24T01:28:35.575Z,-2.00
2022-12-24T01:31:07.486Z,-2.01
2022-12-24T01:33:37.599Z,-2.00
2022-12-24T01:36:10.269Z,-2.08
2022-12-24T01:38:40.396Z,-2.07
2022-12-24T01:41:31.930Z,-2.14
2022-12-24T01:44:16.500Z,-2.06
2022-12-24T01:46:47.547Z,-1.99
2022-12-24T01:49:19.435Z,-2.03
2022-12-24T01:51:54.762Z,-2.09
2022-12-24T01:54:30.477Z,-2.05
2022-12-24T01:57:06.001Z,-2.03
2022-12-24T01:59:36.540Z,-1.98
2022-12-24T02:02:07.403Z,-1.97
2022-12-24T02:04:42.739Z,-2.03
2022-12-24T02:07:14.148Z,-2.08
2022-12-24T02:09:44.322Z,-2.06
2022-12-24T02:12:14.441Z,-2.12
2022-12-24T02:14:44.449Z,-2.18
2022-12-24T02:17:25.793Z,-2.20
2022-12-24T02:20:59.520Z,-2.27
2022-12-24T02:23:59.200Z,-2.22
2022-12-24T02:26:54.605Z,-2.29
2022-12-24T02:29:54.045Z,-2.29
2022-12-24T02:32:28.841Z,-2.28
2022-12-24T02:35:06.820Z,-2.22
2022-12-24T02:37:44.223Z,-2.15
2022-12-24T02:40:18.679Z,-2.16
2022-12-24T02:43:10.562Z,-2.21
2022-12-24T02:45:45.483Z,-2.26
2022-12-24T02:48:18.662Z,-2.30
2022-12-24T02:51:06.001Z,-2.36
2022-12-24T02:53:37.861Z,-2.42
2022-12-24T02:56:43.321Z,-2.45
2022-12-24T02:59:48.950Z,-2.40
2022-12-24T03:02:34.868Z,-2.37
2022-12-24T03:05:19.538Z,-2.36
2022-12-24T03:08:04.245Z,-2.31
2022-12-24T03:10:43.599Z,-2.31
2022-12-24T03:13:19.175Z,-2.36
2022-12-24T03:15:50.449Z,-2.37
2022-12-24T03:18:24.641Z,-2.32
2022-12-24T03:21:02.672Z,-2.31
2022-12-24T03:23:32.903Z,-2.35
2022-12-24T03:26:08.392Z,-2.35
2022-12-24T03:28:42.101Z,-2.39
2022-12-24T03:31:13.396Z,-2.38
2022-12-24T03:33:44.858Z,-2.40
2022-12-24T03:36:15.275Z,-2.45
2022-12-24T03:38:45.597Z,-2.48
2022-12-24T03:41:15.696Z,-2.53
2022-12-24T03:43:45.671Z,-2.56
2022-12-24T03:46:15.631Z,-2.59
2022-12-24T03:51:51.900Z,-2.49
2022-12-24T03:54:21.885Z,-2.43
2022-12-24T03:56:51.761Z,-2.38
2022-12-24T03:59:21.872Z,-2.40
2022-12-24T04:01:52.193Z,-2.43
2022-12-24T04:04:22.268Z,-2.41
2022-12-24T04:06:53.741Z,-2.44
2022-12-24T04:09:23.671Z,-2.43
2022-12-24T04:11:53.605Z,-2.37
2022-12-24T04:14:23.757Z,-2.36
2022-12-24T04:16:53.827Z,-2.44
2022-12-24T04:19:23.921Z,-2.46
2022-12-24T04:21:55.279Z,-2.41
2022-12-24T04:24:25.358Z,-2.39
2022-12-24T04:26:55.299Z,-2.38
2022-12-24T04:29:25.609Z,-2.41
2022-12-24T04:31:55.506Z,-2.49
2022-12-24T04:34:25.520Z,-2.51
2022-12-24T04:36:57.109Z,-2.48
2022-12-24T04:39:27.191Z,-2.39
2022-12-24T04:41:57.126Z,-2.33
2022-12-24T04:44:27.322Z,-2.38
2022-12-24T04:46:57.213Z,-2.47
2022-12-24T04:49:27.170Z,-2.46
2022-12-24T04:51:59.401Z,-2.43
2022-12-24T04:54:29.451Z,-2.43
2022-12-24T04:56:59.339Z,-2.39
2022-12-24T04:59:29.284Z,-2.37
2022-12-24T05:01:59.442Z,-2.29
2022-12-24T05:04:29.421Z,-2.26
2022-12-24T05:07:00.865Z,-2.31
2022-12-24T05:09:30.778Z,-2.38
2022-12-24T05:12:00.622Z,-2.33
2022-12-24T05:14:31.978Z,-2.31
2022-12-24T05:17:01.926Z,-2.40
2022-12-24T05:19:32.114Z,-2.42
2022-12-24T05:22:23.751Z,-2.38
2022-12-24T05:25:11.030Z,-2.45
2022-12-24T05:27:43.436Z,-2.46
2022-12-24T05:30:17.690Z,-2.45
2022-12-24T05:32:47.854Z,-2.46
2022-12-24T05:35:17.968Z,-2.44
2022-12-24T05:37:49.338Z,-2.39
2022-12-24T05:40:19.317Z,-2.43
2022-12-24T05:42:49.126Z,-2.46
2022-12-24T05:45:19.528Z,-2.49
2022-12-24T05:47:49.480Z,-2.55
2022-12-24T05:50:19.761Z,-2.53
2022-12-24T05:52:51.155Z,-2.53
2022-12-24T05:55:21.127Z,-2.48
2022-12-24T05:57:51.148Z,-2.47
2022-12-24T06:00:22.486Z,-2.50
2022-12-24T06:02:52.481Z,-2.52
2022-12-24T06:05:22.602Z,-2.54
2022-12-24T06:07:54.309Z,-2.48
2022-12-24T06:10:24.220Z,-2.47
2022-12-24T06:12:54.140Z,-2.49
2022-12-24T06:15:24.450Z,-2.49
2022-12-24T06:17:54.384Z,-2.40
2022-12-24T06:20:24.328Z,-2.34
2022-12-24T06:22:55.797Z,-2.36
2022-12-24T06:25:25.708Z,-2.39
2022-12-24T06:27:55.744Z,-2.33
2022-12-24T06:30:25.832Z,-2.23
2022-12-24T06:32:55.759Z,-2.19
2022-12-24T06:35:25.741Z,-2.08
2022-12-24T06:37:57.183Z,-1.97
2022-12-24T06:40:27.390Z,-1.87
2022-12-24T06:42:57.222Z,-1.77
2022-12-24T06:45:27.230Z,-1.66
2022-12-24T06:47:57.063Z,-1.50
2022-12-24T06:51:51.727Z,-1.37
2022-12-24T06:54:21.586Z,-1.31
2022-12-24T06:56:51.468Z,-1.20
2022-12-24T06:59:21.299Z,-1.06
2022-12-24T07:01:51.304Z,-0.94
2022-12-24T07:04:21.425Z,-0.84
2022-12-24T07:06:53.061Z,-0.67
2022-12-24T07:09:22.864Z,-0.47
2022-12-24T07:11:52.670Z,-0.32
2022-12-24T07:14:22.600Z,-0.17
2022-12-24T07:16:58.647Z,-0.05
2022-12-24T07:19:29.244Z,0.05
2022-12-24T07:22:00.546Z,0.23
2022-12-24T07:24:30.437Z,0.42
2022-12-24T07:27:00.260Z,0.59
2022-12-24T07:29:30.143Z,0.80
2022-12-24T07:31:59.972Z,0.94
2022-12-24T07:34:29.896Z,1.17
2022-12-24T07:37:01.300Z,1.41
2022-12-24T07:39:31.404Z,1.69
2022-12-24T07:42:01.399Z,1.92
2022-12-24T07:44:31.257Z,2.09
2022-12-24T07:47:01.482Z,2.21
2022-12-24T07:49:31.748Z,2.35
2022-12-24T07:52:03.071Z,2.53
2022-12-24T07:54:33.049Z,2.71
2022-12-24T07:57:03.560Z,2.88
2022-12-24T07:59:33.641Z,3.16
2022-12-24T08:02:03.846Z,3.53
2022-12-24T08:04:36.713Z,3.80
2022-12-24T08:07:09.284Z,4.07
2022-12-24T08:09:40.234Z,4.35
2022-12-24T08:12:10.603Z,4.71
2022-12-24T08:14:40.586Z,4.98
2022-12-24T08:17:10.548Z,4.98
2022-12-24T08:19:40.343Z,4.95
2022-12-24T08:22:11.779Z,4.94
2022-12-24T08:24:41.602Z,4.94
2022-12-24T08:27:11.521Z,5.01
2022-12-24T08:29:41.589Z,5.01
2022-12-24T08:32:11.855Z,5.06
2022-12-24T08:34:41.739Z,5.01
2022-12-24T08:37:13.242Z,4.97
2022-12-24T08:39:43.139Z,4.94
2022-12-24T08:42:13.175Z,4.92
2022-12-24T08:44:42.982Z,4.96
2022-12-24T08:47:12.938Z,5.03
2022-12-24T08:49:42.860Z,5.07
2022-12-24T08:52:14.269Z,5.16
2022-12-24T08:54:44.009Z,5.26
2022-12-24T08:57:15.060Z,5.47
2022-12-24T08:59:44.827Z,5.59
2022-12-24T09:02:14.853Z,5.63
2022-12-24T09:04:45.040Z,5.67
2022-12-24T09:07:16.341Z,5.66
2022-12-24T09:09:46.405Z,5.83
2022-12-24T09:12:16.301Z,5.99
2022-12-24T09:14:46.295Z,5.99
2022-12-24T09:17:16.440Z,6.06
2022-12-24T09:19:46.849Z,6.19
2022-12-24T09:22:18.484Z,6.48
2022-12-24T09:24:48.718Z,6.57
2022-12-24T09:27:18.677Z,6.60
2022-12-24T09:29:48.859Z,6.75
2022-12-24T09:32:18.992Z,6.92
2022-12-24T09:34:49.224Z,7.15
2022-12-24T09:37:20.682Z,7.26
2022-12-24T09:39:50.624Z,7.32
2022-12-24T09:42:35.088Z,7.30
2022-12-24T09:45:16.286Z,7.41
2022-12-24T09:47:51.964Z,7.42
2022-12-24T09:51:57.550Z,7.41
2022-12-24T09:54:31.882Z,7.46
2022-12-24T09:57:08.686Z,7.53
2022-12-24T09:59:47.320Z,7.65
2022-12-24T10:02:20.657Z,7.67
2022-12-24T10:04:51.520Z,7.66
2022-12-24T10:07:37.398Z,7.68
2022-12-24T10:10:20.424Z,7.70
2022-12-24T10:12:58.283Z,7.78
2022-12-24T10:15:32.338Z,7.86
2022-12-24T10:18:24.206Z,7.96
2022-12-24T10:21:01.075Z,8.03
2022-12-24T10:23:40.461Z,8.09
2022-12-24T10:26:17.883Z,8.13
2022-12-24T10:28:53.401Z,8.10
2022-12-24T10:31:28.861Z,8.06
2022-12-24T10:34:03.356Z,8.06
2022-12-24T10:36:34.279Z,8.17
2022-12-24T10:39:05.703Z,8.42
2022-12-24T10:41:39.299Z,8.54
2022-12-24T10:44:10.800Z,8.69
2022-12-24T10:46:43.266Z,8.72
2022-12-24T10:49:18.683Z,8.74
2022-12-24T10:51:54.465Z,8.69
2022-12-24T10:54:28.053Z,8.60
2022-12-24T10:57:01.039Z,8.52
2022-12-24T10:59:33.890Z,8.48
2022-12-24T11:02:05.109Z,8.43
2022-12-24T11:04:48.719Z,8.41
2022-12-24T11:07:24.443Z,8.36
2022-12-24T11:10:01.671Z,8.38
2022-12-24T11:12:35.660Z,8.40
2022-12-24T11:15:10.311Z,8.37
2022-12-24T11:17:40.401Z,8.27
2022-12-24T11:20:20.344Z,8.19
2022-12-24T11:22:53.138Z,8.11
2022-12-24T11:25:28.071Z,8.07
2022-12-24T11:27:59.108Z,8.03
2022-12-24T11:30:33.050Z,8.05
2022-12-24T11:33:23.991Z,8.02
2022-12-24T11:36:03.056Z,8.02
2022-12-24T11:38:36.606Z,8.07
2022-12-24T11:41:11.893Z,8.09
2022-12-24T11:43:48.564Z,8.10
2022-12-24T11:46:41.085Z,8.02
2022-12-24T11:49:25.725Z,7.97
2022-12-24T11:52:26.486Z,7.93
2022-12-24T11:55:21.176Z,7.90
2022-12-24T11:58:02.620Z,7.92
2022-12-24T12:00:32.643Z,7.92
2022-12-24T12:03:05.318Z,7.97
2022-12-24T12:05:35.738Z,7.98
2022-12-24T12:08:17.187Z,7.96
2022-12-24T12:10:49.622Z,7.98
2022-12-24T12:13:26.238Z,8.01
2022-12-24T12:16:16.489Z,7.98
2022-12-24T12:18:54.925Z,7.95
2022-12-24T12:21:29.360Z,7.90
2022-12-24T12:24:06.761Z,7.86
2022-12-24T12:26:37.141Z,7.85
2022-12-24T12:29:27.330Z,7.84
2022-12-24T12:32:04.800Z,7.79
2022-12-24T12:34:40.647Z,7.75
2022-12-24T12:37:16.178Z,7.75
2022-12-24T12:39:46.305Z,7.74
2022-12-24T12:42:28.462Z,7.79
2022-12-24T12:45:13.820Z,7.87
2022-12-24T12:48:13.621Z,7.92
2022-12-24T12:52:01.800Z,7.97
2022-12-24T12:54:51.966Z,8.08
2022-12-24T12:57:28.968Z,8.18
2022-12-24T13:00:06.071Z,8.26
2022-12-24T13:02:58.599Z,8.40
2022-12-24T13:06:31.506Z,8.42
2022-12-24T13:09:50.743Z,8.31
2022-12-24T13:12:38.905Z,8.21
2022-12-24T13:15:33.491Z,8.13
2022-12-24T13:18:53.361Z,8.08
2022-12-24T13:21:27.300Z,8.03
2022-12-24T13:24:09.867Z,8.07
2022-12-24T13:26:41.372Z,8.10
2022-12-24T13:29:45.904Z,8.11
2022-12-24T13:32:43.195Z,8.20
2022-12-24T13:35:41.142Z,8.25
2022-12-24T13:38:44.187Z,8.18
2022-12-24T13:41:56.465Z,8.09
2022-12-24T13:44:33.432Z,8.02
2022-12-24T13:47:26.875Z,7.91
2022-12-24T13:50:24.730Z,7.80
2022-12-24T13:52:56.394Z,7.74
2022-12-24T13:55:26.502Z,7.69
2022-12-24T13:58:04.423Z,7.62
2022-12-24T14:00:44.532Z,7.57
2022-12-24T14:03:31.730Z,7.59
2022-12-24T14:06:05.044Z,7.64
2022-12-24T14:08:41.140Z,7.57
2022-12-24T14:11:15.277Z,7.52
2022-12-24T14:14:27.013Z,7.41
2022-12-24T14:17:01.101Z,7.29
2022-12-24T14:19:41.043Z,7.24
2022-12-24T14:22:33.321Z,7.20
2022-12-24T14:25:09.123Z,7.10
2022-12-24T14:27:47.305Z,7.00
2022-12-24T14:30:24.818Z,6.93
2022-12-24T14:32:56.273Z,6.85
2022-12-24T14:35:29.675Z,6.81
2022-12-24T14:38:05.287Z,6.77
2022-12-24T14:40:39.130Z,6.68
2022-12-24T14:43:22.349Z,6.59
2022-12-24T14:46:06.066Z,6.59
2022-12-24T14:48:46.386Z,6.56
2022-12-24T14:51:27.241Z,6.44
2022-12-24T14:54:23.950Z,6.42
2022-12-24T14:57:25.191Z,6.38
2022-12-24T14:59:57.604Z,6.27
2022-12-24T15:02:41.020Z,6.19
2022-12-24T15:05:19.862Z,6.13
2022-12-24T15:07:56.381Z,6.10
2022-12-24T15:10:33.369Z,6.09
2022-12-24T15:13:08.263Z,6.06
2022-12-24T15:15:39.101Z,5.98
2022-12-24T15:18:18.951Z,5.88
2022-12-24T15:20:57.198Z,5.89
2022-12-24T15:23:33.287Z,5.90
2022-12-24T15:26:17.547Z,5.81
2022-12-24T15:28:47.624Z,5.72
2022-12-24T15:31:21.018Z,5.66
2022-12-24T15:33:55.490Z,5.59
2022-12-24T15:36:33.107Z,5.66
2022-12-24T15:39:06.703Z,5.71
2022-12-24T15:41:57.425Z,5.53
2022-12-24T15:44:27.512Z,5.46
2022-12-24T15:47:02.063Z,5.43
2022-12-24T15:51:51.866Z,5.34
2022-12-24T15:54:25.262Z,5.29
2022-12-24T15:56:55.143Z,5.28
2022-12-24T15:59:36.093Z,5.21
2022-12-24T16:02:39.061Z,5.14
2022-12-24T16:05:36.115Z,5.11
2022-12-24T16:08:26.188Z,5.15
2022-12-24T16:11:16.505Z,5.20
2022-12-24T16:14:06.327Z,5.14
2022-12-24T16:16:40.331Z,5.06
2022-12-24T16:19:21.512Z,5.00
2022-12-24T16:21:56.622Z,4.99
2022-12-24T16:24:30.528Z,5.03
2022-12-24T16:27:00.943Z,4.99
2022-12-24T16:29:30.772Z,4.96
2022-12-24T16:32:01.735Z,4.97
2022-12-24T16:34:33.577Z,5.01
2022-12-24T16:37:03.442Z,5.00
2022-12-24T16:39:36.933Z,5.04
2022-12-24T16:42:24.848Z,4.99
2022-12-24T16:44:56.134Z,4.94
2022-12-24T16:47:33.828Z,4.89
2022-12-24T16:50:09.014Z,4.81
2022-12-24T16:52:38.882Z,4.76
2022-12-24T16:55:15.277Z,4.80
2022-12-24T16:57:46.006Z,4.85
2022-12-24T17:00:21.804Z,4.80
2022-12-24T17:02:52.771Z,4.75
2022-12-24T17:05:24.148Z,4.76
2022-12-24T17:07:54.411Z,4.80
2022-12-24T17:10:25.827Z,4.81
2022-12-24T17:12:55.881Z,4.75
2022-12-24T17:15:25.772Z,4.74
2022-12-24T17:17:55.879Z,4.72
2022-12-24T17:20:26.245Z,4.70
2022-12-24T17:22:56.143Z,4.73
2022-12-24T17:25:27.563Z,4.75
2022-12-24T17:27:57.427Z,4.73
2022-12-24T17:30:27.367Z,4.72
2022-12-24T17:32:57.377Z,4.67
2022-12-24T17:35:27.369Z,4.65
2022-12-24T17:37:57.142Z,4.67
2022-12-24T17:40:28.743Z,4.65
2022-12-24T17:42:58.564Z,4.69
2022-12-24T17:45:28.691Z,4.70
2022-12-24T17:47:58.484Z,4.67
2022-12-24T17:50:28.443Z,4.68
2022-12-24T17:52:58.591Z,4.70
2022-12-24T17:55:30.033Z,4.70
2022-12-24T17:57:59.914Z,4.70
2022-12-24T18:00:33.137Z,4.67
2022-12-24T18:03:03.698Z,4.63
2022-12-24T18:05:36.783Z,4.67
2022-12-24T18:08:07.205Z,4.74
2022-12-24T18:10:38.608Z,4.80
2022-12-24T18:13:11.446Z,4.96
2022-12-24T18:15:45.606Z,4.97
2022-12-24T18:18:15.803Z,4.89
2022-12-24T18:20:47.173Z,4.93
2022-12-24T18:23:17.942Z,4.90
2022-12-24T18:25:49.321Z,4.83
2022-12-24T18:28:19.366Z,4.81
2022-12-24T18:31:01.359Z,4.86
2022-12-24T18:33:32.322Z,4.79
2022-12-24T18:36:02.149Z,4.75
2022-12-24T18:38:32.268Z,4.69
2022-12-24T18:41:07.384Z,4.64
2022-12-24T18:43:37.547Z,4.58
2022-12-24T18:46:10.789Z,4.60
2022-12-24T18:51:51.583Z,4.64
2022-12-24T18:54:21.523Z,4.55
2022-12-24T18:56:53.526Z,4.49
2022-12-24T18:59:23.531Z,4.55
2022-12-24T19:01:53.656Z,4.61
2022-12-24T19:04:23.805Z,4.58
2022-12-24T19:06:55.143Z,4.65
2022-12-24T19:09:25.600Z,4.68
2022-12-24T19:11:55.524Z,4.71
2022-12-24T19:14:25.387Z,4.73
2022-12-24T19:16:55.381Z,4.76
2022-12-24T19:19:25.284Z,4.79
2022-12-24T19:21:56.603Z,4.81
2022-12-24T19:24:26.532Z,4.80
2022-12-24T19:26:56.525Z,4.72
2022-12-24T19:29:26.360Z,4.74
2022-12-24T19:31:56.280Z,4.83
2022-12-24T19:34:26.415Z,5.03
2022-12-24T19:36:57.703Z,5.10
2022-12-24T19:39:32.157Z,5.11
2022-12-24T19:42:02.488Z,5.11
2022-12-24T19:44:32.526Z,5.13
2022-12-24T19:47:02.522Z,5.12
2022-12-24T19:49:32.448Z,5.04
2022-12-24T19:52:03.905Z,5.03
2022-12-24T19:54:33.852Z,4.99
2022-12-24T19:57:03.968Z,4.98
2022-12-24T19:59:33.957Z,5.07
2022-12-24T20:02:04.086Z,5.03
2022-12-24T20:04:33.968Z,5.08
2022-12-24T20:07:05.345Z,5.06
2022-12-24T20:09:35.273Z,5.10
2022-12-24T20:12:05.906Z,5.18
2022-12-24T20:14:35.795Z,5.17
2022-12-24T20:17:05.797Z,5.15
2022-12-24T20:19:35.624Z,5.12
2022-12-24T20:22:06.992Z,5.17
2022-12-24T20:24:36.953Z,5.17
2022-12-24T20:27:07.137Z,5.21
2022-12-24T20:29:36.982Z,5.18
2022-12-24T20:32:07.623Z,5.19
2022-12-24T20:34:37.502Z,5.22
2022-12-24T20:37:08.863Z,5.25
2022-12-24T20:39:39.302Z,5.19
2022-12-24T20:42:09.242Z,5.24
2022-12-24T20:44:39.092Z,5.25
2022-12-24T20:47:09.042Z,5.18
2022-12-24T20:49:39.062Z,5.14
2022-12-24T20:52:10.603Z,5.10
2022-12-24T20:54:41.430Z,5.03
2022-12-24T20:57:11.284Z,4.99
2022-12-24T20:59:41.202Z,5.00
2022-12-24T21:02:14.729Z,4.95
2022-12-24T21:04:44.943Z,4.86
2022-12-24T21:07:16.324Z,4.85
2022-12-24T21:09:46.269Z,4.82
2022-12-24T21:12:33.412Z,4.82
2022-12-24T21:15:03.206Z,4.87
2022-12-24T21:17:33.182Z,4.81
2022-12-24T21:20:03.195Z,4.78
2022-12-24T21:22:34.601Z,4.78
2022-12-24T21:25:04.660Z,4.82
2022-12-24T21:27:34.652Z,4.78
2022-12-24T21:30:04.943Z,4.71
2022-12-24T21:32:34.861Z,4.60
2022-12-24T21:35:04.879Z,4.60
2022-12-24T21:37:36.443Z,4.53
2022-12-24T21:40:10.243Z,4.45
2022-12-24T21:42:40.601Z,4.36
2022-12-24T21:45:12.784Z,4.34
2022-12-24T21:47:44.901Z,4.31
2022-12-24T21:51:51.341Z,4.39
2022-12-24T21:54:31.745Z,4.40
2022-12-24T21:57:20.954Z,4.42
2022-12-24T21:59:53.452Z,4.55
2022-12-24T22:02:27.084Z,4.63
2022-12-24T22:04:57.462Z,4.70
2022-12-24T22:07:47.912Z,4.81
2022-12-24T22:10:37.316Z,4.84
2022-12-24T22:13:09.118Z,4.80
2022-12-24T22:15:45.317Z,4.77
2022-12-24T22:18:16.265Z,4.75
2022-12-24T22:20:49.224Z,4.62
2022-12-24T22:23:22.359Z,4.47
2022-12-24T22:25:52.541Z,4.36
2022-12-24T22:28:22.479Z,4.37
2022-12-24T22:30:52.428Z,4.41
2022-12-24T22:33:22.400Z,4.47
2022-12-24T22:35:52.363Z,4.49
2022-12-24T22:38:23.782Z,4.50
2022-12-24T22:40:53.738Z,4.49
2022-12-24T22:43:23.685Z,4.56
2022-12-24T22:45:53.666Z,4.66
2022-12-24T22:48:23.674Z,4.71
2022-12-24T22:50:53.741Z,4.77
2022-12-24T22:53:25.212Z,4.85
2022-12-24T22:55:58.338Z,4.93
2022-12-24T22:58:28.382Z,4.94
2022-12-24T23:00:59.240Z,4.96
2022-12-24T23:03:32.158Z,4.94
2022-12-24T23:06:05.332Z,4.92
2022-12-24T23:08:39.201Z,4.93
2022-12-24T23:11:11.278Z,4.89
2022-12-24T23:14:00.684Z,4.88
2022-12-24T23:16:31.824Z,4.85
2022-12-24T23:19:04.271Z,4.84
2022-12-24T23:21:34.835Z,4.88
2022-12-24T23:24:07.284Z,4.88
2022-12-24T23:26:37.208Z,4.91
2022-12-24T23:29:07.601Z,4.91
2022-12-24T23:31:38.066Z,4.91
2022-12-24T23:34:08.083Z,4.99
2022-12-24T23:36:38.093Z,5.08
2022-12-24T23:39:09.532Z,4.98
2022-12-24T23:41:39.406Z,4.87
2022-12-24T23:44:09.591Z,4.73
2022-12-24T23:46:39.578Z,4.65
2022-12-24T23:49:09.520Z,4.58
2022-12-24T23:51:39.563Z,4.50
2022-12-24T23:54:11.097Z,4.47
2022-12-24T23:56:41.090Z,4.51
2022-12-24T23:59:11.051Z,4.53
